Ryazhsk, Russia
Current Conditions -  °F | °C
As of 2:00 AM on Saturday 25 Oct 2014 (Local Time) from UUDD Reporting Station
Clear Clear  
Wind Chill:   Ceiling: Unl
Heat Index: 14°   Visibility: 6mi
Dew Point: 10°   Wind: 7mph
Humidity: 86%   Direction: 10°N
Pressure: 30.62"   Gusts: NA
Location:  53.71°N, 40.07°E
Report Text: UUDD 242300Z 01003MPS CAVOK M10/M12 Q1037 32010095 82010095NOSIG
Loading
Personal Weather Stations






























Interactive Weather Map
Tropical Storm Tracking
New forecast layout! Learn more

10-Day Weather Forecast

Advertisements
Track Severe Weather on mobile